sensor_id;sensor_type;location;lat;lon;timestamp;pressure;altitude;pressure_sealevel;temperature;humidity
16120;BME280;12670;53.502;10.252;2022-08-19T00:01:19;100858.16;;;21.37;100.00
16120;BME280;12670;53.502;10.252;2022-08-19T00:04:34;100869.09;;;21.36;100.00
16120;BME280;12670;53.502;10.252;2022-08-19T00:07:38;100861.78;;;21.47;100.00
16120;BME280;12670;53.502;10.252;2022-08-19T00:10:40;100865.59;;;21.45;100.00
16120;BME280;12670;53.502;10.252;2022-08-19T00:13:43;100872.16;;;21.31;100.00
16120;BME280;12670;53.502;10.252;2022-08-19T00:16:47;100874.16;;;21.29;100.00
16120;BME280;12670;53.502;10.252;2022-08-19T00:19:51;100873.09;;;21.41;100.00
16120;BME280;12670;53.502;10.252;2022-08-19T00:22:54;100867.88;;;21.28;100.00
16120;BME280;12670;53.502;10.252;2022-08-19T00:25:57;100870.97;;;21.45;100.00
16120;BME280;12670;53.502;10.252;2022-08-19T00:28:59;100873.69;;;21.45;100.00
16120;BME280;12670;53.502;10.252;2022-08-19T00:32:03;100859.09;;;21.47;100.00
16120;BME280;12670;53.502;10.252;2022-08-19T00:35:12;100858.16;;;21.37;100.00
16120;BME280;12670;53.502;10.252;2022-08-19T00:38:15;100847.91;;;21.20;100.00
16120;BME280;12670;53.502;10.252;2022-08-19T00:41:35;100838.28;;;21.27;100.00
16120;BME280;12670;53.502;10.252;2022-08-19T00:44:38;100827.28;;;21.30;100.00
16120;BME280;12670;53.502;10.252;2022-08-19T00:47:40;100834.78;;;21.15;100.00
16120;BME280;12670;53.502;10.252;2022-08-19T00:50:46;100828.16;;;21.19;100.00
16120;BME280;12670;53.502;10.252;2022-08-19T00:53:53;100829.34;;;21.26;100.00
16120;BME280;12670;53.502;10.252;2022-08-19T00:56:56;100825.59;;;21.29;100.00
16120;BME280;12670;53.502;10.252;2022-08-19T00:59:59;100836.63;;;21.15;100.00
16120;BME280;12670;53.502;10.252;2022-08-19T01:03:05;100845.41;;;21.28;100.00
16120;BME280;12670;53.502;10.252;2022-08-19T01:06:09;100843.19;;;21.33;100.00
16120;BME280;12670;53.502;10.252;2022-08-19T01:09:12;100841.25;;;21.35;100.00
16120;BME280;12670;53.502;10.252;2022-08-19T01:12:15;100834.38;;;21.31;100.00
16120;BME280;12670;53.502;10.252;2022-08-19T01:15:22;100842.19;;;21.13;100.00
16120;BME280;12670;53.502;10.252;2022-08-19T01:18:27;100844.22;;;21.21;100.00
16120;BME280;12670;53.502;10.252;2022-08-19T01:21:35;100847.03;;;21.31;100.00
16120;BME280;12670;53.502;10.252;2022-08-19T01:24:41;100837.81;;;21.33;100.00
16120;BME280;12670;53.502;10.252;2022-08-19T01:27:51;100837.81;;;21.33;100.00
16120;BME280;12670;53.502;10.252;2022-08-19T01:30:54;100839.50;;;21.34;100.00
16120;BME280;12670;53.502;10.252;2022-08-19T01:33:57;100830.78;;;21.10;100.00
16120;BME280;12670;53.502;10.252;2022-08-19T01:37:00;100818.41;;;21.28;100.00
16120;BME280;12670;53.502;10.252;2022-08-19T01:40:10;100811.50;;;21.14;100.00
16120;BME280;12670;53.502;10.252;2022-08-19T01:43:13;100805.88;;;21.17;100.00
16120;BME280;12670;53.502;10.252;2022-08-19T01:46:17;100809.00;;;21.22;100.00
16120;BME280;12670;53.502;10.252;2022-08-19T01:49:25;100805.25;;;21.14;100.00
16120;BME280;12670;53.502;10.252;2022-08-19T01:52:28;100805.06;;;21.26;100.00
16120;BME280;12670;53.502;10.252;2022-08-19T01:55:34;100803.59;;;21.22;100.00
16120;BME280;12670;53.502;10.252;2022-08-19T01:58:44;100800.06;;;21.01;100.00
16120;BME280;12670;53.502;10.252;2022-08-19T02:01:49;100796.91;;;21.17;100.00
16120;BME280;12670;53.502;10.252;2022-08-19T02:04:52;100793.22;;;21.18;100.00
16120;BME280;12670;53.502;10.252;2022-08-19T02:07:55;100794.91;;;20.98;100.00
16120;BME280;12670;53.502;10.252;2022-08-19T02:10:59;100798.63;;;20.86;100.00
16120;BME280;12670;53.502;10.252;2022-08-19T02:14:03;100791.81;;;21.02;100.00
16120;BME280;12670;53.502;10.252;2022-08-19T02:17:07;100792.00;;;21.11;100.00
16120;BME280;12670;53.502;10.252;2022-08-19T02:20:11;100792.09;;;20.99;100.00
16120;BME280;12670;53.502;10.252;2022-08-19T02:23:15;100790.25;;;20.68;100.00
16120;BME280;12670;53.502;10.252;2022-08-19T02:26:20;100789.03;;;20.72;100.00
16120;BME280;12670;53.502;10.252;2022-08-19T02:29:22;100798.16;;;20.81;100.00
16120;BME280;12670;53.502;10.252;2022-08-19T02:32:25;100788.66;;;20.97;100.00
16120;BME280;12670;53.502;10.252;2022-08-19T02:35:28;100799.25;;;20.89;100.00
16120;BME280;12670;53.502;10.252;2022-08-19T02:38:31;100799.28;;;20.78;100.00
16120;BME280;12670;53.502;10.252;2022-08-19T02:41:35;100803.22;;;20.74;100.00
16120;BME280;12670;53.502;10.252;2022-08-19T02:44:38;100796.75;;;20.97;100.00
16120;BME280;12670;53.502;10.252;2022-08-19T02:47:40;100791.91;;;20.80;100.00
16120;BME280;12670;53.502;10.252;2022-08-19T02:50:44;100789.78;;;20.95;100.00
16120;BME280;12670;53.502;10.252;2022-08-19T02:53:54;100782.34;;;20.87;100.00
16120;BME280;12670;53.502;10.252;2022-08-19T02:56:58;100788.88;;;20.73;100.00
16120;BME280;12670;53.502;10.252;2022-08-19T03:00:04;100779.66;;;20.87;100.00
16120;BME280;12670;53.502;10.252;2022-08-19T03:03:07;100786.81;;;20.98;100.00
16120;BME280;12670;53.502;10.252;2022-08-19T03:06:12;100792.88;;;20.90;100.00
16120;BME280;12670;53.502;10.252;2022-08-19T03:09:17;100793.28;;;20.74;100.00
16120;BME280;12670;53.502;10.252;2022-08-19T03:12:21;100789.44;;;20.88;100.00
16120;BME280;12670;53.502;10.252;2022-08-19T03:15:24;100791.91;;;20.80;100.00
16120;BME280;12670;53.502;10.252;2022-08-19T03:18:27;100792.09;;;20.99;100.00
16120;BME280;12670;53.502;10.252;2022-08-19T03:21:32;100793.19;;;20.76;100.00
16120;BME280;12670;53.502;10.252;2022-08-19T03:24:35;100778.19;;;20.83;100.00
16120;BME280;12670;53.502;10.252;2022-08-19T03:27:39;100778.16;;;20.94;100.00
16120;BME280;12670;53.502;10.252;2022-08-19T03:30:43;100785.75;;;20.89;100.00
16120;BME280;12670;53.502;10.252;2022-08-19T03:33:57;100782.78;;;20.92;100.00
16120;BME280;12670;53.502;10.252;2022-08-19T03:37:03;100796.44;;;21.12;100.00
16120;BME280;12670;53.502;10.252;2022-08-19T03:40:07;100804.84;;;20.97;100.00
16120;BME280;12670;53.502;10.252;2022-08-19T03:43:18;100811.41;;;21.04;100.00
16120;BME280;12670;53.502;10.252;2022-08-19T03:46:24;100831.72;;;21.20;100.00
16120;BME280;12670;53.502;10.252;2022-08-19T03:49:29;100822.63;;;21.00;100.00
16120;BME280;12670;53.502;10.252;2022-08-19T03:52:34;100833.69;;;21.18;100.00
16120;BME280;12670;53.502;10.252;2022-08-19T03:55:39;100832.81;;;20.96;100.00
16120;BME280;12670;53.502;10.252;2022-08-19T03:58:44;100841.78;;;20.86;100.00
16120;BME280;12670;53.502;10.252;2022-08-19T04:01:47;100840.59;;;20.79;100.00
16120;BME280;12670;53.502;10.252;2022-08-19T04:04:53;100846.81;;;20.90;100.00
16120;BME280;12670;53.502;10.252;2022-08-19T04:07:55;100851.72;;;20.85;100.00
16120;BME280;12670;53.502;10.252;2022-08-19T04:11:00;100849.28;;;20.82;100.00
16120;BME280;12670;53.502;10.252;2022-08-19T04:14:04;100844.25;;;20.89;100.00
16120;BME280;12670;53.502;10.252;2022-08-19T04:17:07;100849.84;;;20.97;100.00
16120;BME280;12670;53.502;10.252;2022-08-19T04:20:10;100855.59;;;20.92;100.00
16120;BME280;12670;53.502;10.252;2022-08-19T04:23:13;100865.19;;;20.85;100.00
16120;BME280;12670;53.502;10.252;2022-08-19T04:26:18;100865.19;;;20.85;100.00
16120;BME280;12670;53.502;10.252;2022-08-19T04:29:24;100851.59;;;20.87;100.00
16120;BME280;12670;53.502;10.252;2022-08-19T04:32:28;100858.44;;;20.91;100.00
16120;BME280;12670;53.502;10.252;2022-08-19T04:35:36;100858.44;;;20.91;100.00
16120;BME280;12670;53.502;10.252;2022-08-19T04:38:39;100857.34;;;20.93;100.00
16120;BME280;12670;53.502;10.252;2022-08-19T04:41:41;100871.22;;;20.89;100.00
16120;BME280;12670;53.502;10.252;2022-08-19T04:45:04;100856.00;;;20.88;100.00
16120;BME280;12670;53.502;10.252;2022-08-19T04:48:10;100860.59;;;20.76;100.00
16120;BME280;12670;53.502;10.252;2022-08-19T04:51:27;100866.41;;;20.92;100.00
16120;BME280;12670;53.502;10.252;2022-08-19T04:54:32;100866.19;;;20.84;100.00
16120;BME280;12670;53.502;10.252;2022-08-19T04:57:39;100861.16;;;20.80;100.00
16120;BME280;12670;53.502;10.252;2022-08-19T05:00:43;100870.53;;;20.75;100.00
16120;BME280;12670;53.502;10.252;2022-08-19T05:03:46;100878.00;;;20.72;100.00
16120;BME280;12670;53.502;10.252;2022-08-19T05:06:49;100883.38;;;20.72;100.00
16120;BME280;12670;53.502;10.252;2022-08-19T05:09:52;100878.19;;;20.80;100.00
16120;BME280;12670;53.502;10.252;2022-08-19T05:12:59;100875.41;;;20.82;100.00
16120;BME280;12670;53.502;10.252;2022-08-19T05:16:03;100875.91;;;20.75;100.00
16120;BME280;12670;53.502;10.252;2022-08-19T05:19:06;100884.25;;;20.72;100.00
16120;BME280;12670;53.502;10.252;2022-08-19T05:22:26;100881.06;;;20.56;100.00
16120;BME280;12670;53.502;10.252;2022-08-19T05:25:39;100894.88;;;20.74;100.00
16120;BME280;12670;53.502;10.252;2022-08-19T05:28:42;100895.50;;;20.77;100.00
16120;BME280;12670;53.502;10.252;2022-08-19T05:31:47;100898.44;;;20.74;100.00
16120;BME280;12670;53.502;10.252;2022-08-19T05:34:50;100896.16;;;20.59;100.00
16120;BME280;12670;53.502;10.252;2022-08-19T05:37:53;100898.94;;;20.68;100.00
16120;BME280;12670;53.502;10.252;2022-08-19T05:40:59;100892.94;;;20.31;100.00
16120;BME280;12670;53.502;10.252;2022-08-19T05:44:04;100891.84;;;20.45;100.00
16120;BME280;12670;53.502;10.252;2022-08-19T05:47:13;100887.81;;;20.50;100.00
16120;BME280;12670;53.502;10.252;2022-08-19T05:50:16;100883.16;;;20.64;100.00
16120;BME280;12670;53.502;10.252;2022-08-19T05:53:18;100888.16;;;20.68;100.00
16120;BME280;12670;53.502;10.252;2022-08-19T05:56:21;100868.69;;;20.65;100.00
16120;BME280;12670;53.502;10.252;2022-08-19T05:59:24;100881.44;;;20.52;100.00
16120;BME280;12670;53.502;10.252;2022-08-19T06:02:28;100881.31;;;20.64;100.00
16120;BME280;12670;53.502;10.252;2022-08-19T06:05:32;100880.56;;;20.62;100.00
16120;BME280;12670;53.502;10.252;2022-08-19T06:08:50;100881.56;;;20.61;100.00
16120;BME280;12670;53.502;10.252;2022-08-19T06:11:54;100880.91;;;20.69;100.00
16120;BME280;12670;53.502;10.252;2022-08-19T06:15:02;100885.91;;;20.85;100.00
16120;BME280;12670;53.502;10.252;2022-08-19T06:18:07;100879.56;;;20.74;100.00
16120;BME280;12670;53.502;10.252;2022-08-19T06:21:10;100882.16;;;20.76;100.00
16120;BME280;12670;53.502;10.252;2022-08-19T06:24:16;100891.19;;;20.75;100.00
16120;BME280;12670;53.502;10.252;2022-08-19T06:27:19;100882.38;;;20.84;100.00
16120;BME280;12670;53.502;10.252;2022-08-19T06:30:22;100880.41;;;20.75;100.00
16120;BME280;12670;53.502;10.252;2022-08-19T06:33:26;100872.63;;;20.61;100.00
16120;BME280;12670;53.502;10.252;2022-08-19T06:36:32;100866.38;;;20.49;100.00
16120;BME280;12670;53.502;10.252;2022-08-19T06:39:37;100875.28;;;20.72;100.00
16120;BME280;12670;53.502;10.252;2022-08-19T06:42:40;100864.69;;;20.91;100.00
16120;BME280;12670;53.502;10.252;2022-08-19T06:45:55;100867.72;;;20.66;100.00
16120;BME280;12670;53.502;10.252;2022-08-19T06:49:00;100875.19;;;20.62;100.00
16120;BME280;12670;53.502;10.252;2022-08-19T06:52:04;100875.44;;;20.59;100.00
16120;BME280;12670;53.502;10.252;2022-08-19T06:55:08;100873.44;;;20.84;100.00
16120;BME280;12670;53.502;10.252;2022-08-19T06:58:11;100867.88;;;20.96;100.00
16120;BME280;12670;53.502;10.252;2022-08-19T07:01:13;100860.03;;;20.93;100.00
16120;BME280;12670;53.502;10.252;2022-08-19T07:04:19;100865.88;;;20.98;100.00
16120;BME280;12670;53.502;10.252;2022-08-19T07:07:22;100859.78;;;20.96;100.00
16120;BME280;12670;53.502;10.252;2022-08-19T07:10:24;100850.78;;;21.07;100.00
16120;BME280;12670;53.502;10.252;2022-08-19T07:13:27;100859.28;;;20.91;100.00
16120;BME280;12670;53.502;10.252;2022-08-19T07:16:30;100867.91;;;20.74;100.00
16120;BME280;12670;53.502;10.252;2022-08-19T07:19:35;100866.81;;;20.88;100.00
16120;BME280;12670;53.502;10.252;2022-08-19T07:22:38;100873.25;;;20.96;100.00
16120;BME280;12670;53.502;10.252;2022-08-19T07:25:41;100867.25;;;20.93;100.00
16120;BME280;12670;53.502;10.252;2022-08-19T07:28:45;100861.84;;;20.93;100.00
16120;BME280;12670;53.502;10.252;2022-08-19T07:31:54;100883.34;;;20.83;100.00
16120;BME280;12670;53.502;10.252;2022-08-19T07:35:03;100896.34;;;20.89;100.00
16120;BME280;12670;53.502;10.252;2022-08-19T07:38:07;100892.50;;;20.92;100.00
16120;BME280;12670;53.502;10.252;2022-08-19T07:41:11;100894.63;;;20.88;100.00
16120;BME280;12670;53.502;10.252;2022-08-19T07:44:14;100896.09;;;20.81;100.00
16120;BME280;12670;53.502;10.252;2022-08-19T07:47:17;100898.25;;;20.98;100.00
16120;BME280;12670;53.502;10.252;2022-08-19T07:50:42;100909.59;;;21.24;100.00
16120;BME280;12670;53.502;10.252;2022-08-19T07:53:45;100914.22;;;21.22;100.00
16120;BME280;12670;53.502;10.252;2022-08-19T07:56:48;100923.44;;;20.76;100.00
16120;BME280;12670;53.502;10.252;2022-08-19T07:59:52;100922.81;;;20.84;100.00
16120;BME280;12670;53.502;10.252;2022-08-19T08:02:55;100925.72;;;20.92;100.00
16120;BME280;12670;53.502;10.252;2022-08-19T08:05:59;100928.19;;;20.95;100.00
16120;BME280;12670;53.502;10.252;2022-08-19T08:09:22;100934.28;;;21.09;100.00
16120;BME280;12670;53.502;10.252;2022-08-19T08:12:29;100939.56;;;20.99;100.00
16120;BME280;12670;53.502;10.252;2022-08-19T08:15:36;100940.38;;;21.11;100.00
16120;BME280;12670;53.502;10.252;2022-08-19T08:18:43;100942.03;;;21.02;100.00
16120;BME280;12670;53.502;10.252;2022-08-19T08:21:57;100943.56;;;21.16;100.00
16120;BME280;12670;53.502;10.252;2022-08-19T08:25:02;100944.53;;;21.26;100.00
16120;BME280;12670;53.502;10.252;2022-08-19T08:28:07;100945.75;;;21.33;100.00
16120;BME280;12670;53.502;10.252;2022-08-19T08:31:11;100954.84;;;21.32;100.00
16120;BME280;12670;53.502;10.252;2022-08-19T08:34:14;100951.19;;;21.11;100.00
16120;BME280;12670;53.502;10.252;2022-08-19T08:37:18;100946.81;;;20.98;100.00
16120;BME280;12670;53.502;10.252;2022-08-19T08:40:26;100956.81;;;20.53;100.00
16120;BME280;12670;53.502;10.252;2022-08-19T08:43:33;100952.97;;;20.89;100.00
16120;BME280;12670;53.502;10.252;2022-08-19T08:46:39;100951.81;;;21.03;100.00
16120;BME280;12670;53.502;10.252;2022-08-19T08:49:48;100963.09;;;21.08;100.00
16120;BME280;12670;53.502;10.252;2022-08-19T08:52:56;100959.72;;;21.27;100.00
16120;BME280;12670;53.502;10.252;2022-08-19T08:56:03;100960.25;;;21.10;100.00
16120;BME280;12670;53.502;10.252;2022-08-19T08:59:11;100958.53;;;21.20;100.00
16120;BME280;12670;53.502;10.252;2022-08-19T09:02:15;100965.41;;;21.35;100.00
16120;BME280;12670;53.502;10.252;2022-08-19T09:05:18;100963.66;;;21.34;100.00
16120;BME280;12670;53.502;10.252;2022-08-19T09:08:38;100961.69;;;21.25;100.00
16120;BME280;12670;53.502;10.252;2022-08-19T09:11:52;100968.94;;;21.24;100.00
16120;BME280;12670;53.502;10.252;2022-08-19T09:15:02;100965.16;;;21.16;100.00
16120;BME280;12670;53.502;10.252;2022-08-19T09:18:08;100968.94;;;21.36;100.00
16120;BME280;12670;53.502;10.252;2022-08-19T09:21:20;100969.53;;;21.28;100.00
16120;BME280;12670;53.502;10.252;2022-08-19T09:24:32;100967.75;;;21.17;100.00
16120;BME280;12670;53.502;10.252;2022-08-19T09:27:36;100962.78;;;21.34;100.00
16120;BME280;12670;53.502;10.252;2022-08-19T09:30:54;100958.59;;;20.86;100.00
16120;BME280;12670;53.502;10.252;2022-08-19T09:33:56;100956.16;;;20.83;100.00
16120;BME280;12670;53.502;10.252;2022-08-19T09:36:59;100964.28;;;21.15;100.00
16120;BME280;12670;53.502;10.252;2022-08-19T09:40:05;100959.69;;;21.06;100.00
16120;BME280;12670;53.502;10.252;2022-08-19T09:43:09;100957.06;;;21.16;100.00
16120;BME280;12670;53.502;10.252;2022-08-19T09:46:14;100959.72;;;21.38;100.00
16120;BME280;12670;53.502;10.252;2022-08-19T09:49:19;100954.59;;;21.24;100.00
16120;BME280;12670;53.502;10.252;2022-08-19T09:52:24;100958.00;;;21.37;100.00
16120;BME280;12670;53.502;10.252;2022-08-19T09:55:34;100963.41;;;21.37;100.00
16120;BME280;12670;53.502;10.252;2022-08-19T09:58:37;100959.94;;;21.46;100.00
16120;BME280;12670;53.502;10.252;2022-08-19T10:01:43;100962.69;;;21.24;100.00
16120;BME280;12670;53.502;10.252;2022-08-19T10:04:49;100958.91;;;21.15;100.00
16120;BME280;12670;53.502;10.252;2022-08-19T10:08:09;100954.03;;;20.98;100.00
16120;BME280;12670;53.502;10.252;2022-08-19T10:11:15;100954.63;;;21.13;100.00
16120;BME280;12670;53.502;10.252;2022-08-19T10:14:38;100957.69;;;21.08;100.00
16120;BME280;12670;53.502;10.252;2022-08-19T10:17:41;100965.41;;;21.35;100.00
16120;BME280;12670;53.502;10.252;2022-08-19T10:21:04;100974.88;;;21.50;100.00
16120;BME280;12670;53.502;10.252;2022-08-19T10:24:12;100966.81;;;21.39;100.00
16120;BME280;12670;53.502;10.252;2022-08-19T10:27:15;100966.09;;;21.37;100.00
16120;BME280;12670;53.502;10.252;2022-08-19T10:30:19;100962.72;;;21.56;100.00
16120;BME280;12670;53.502;10.252;2022-08-19T10:33:25;100971.97;;;21.42;100.00
16120;BME280;12670;53.502;10.252;2022-08-19T10:36:49;100978.63;;;21.38;100.00
16120;BME280;12670;53.502;10.252;2022-08-19T10:40:03;100972.63;;;21.35;100.00
16120;BME280;12670;53.502;10.252;2022-08-19T10:43:08;100976.28;;;21.34;100.00
16120;BME280;12670;53.502;10.252;2022-08-19T10:46:13;100964.94;;;21.51;100.00
16120;BME280;12670;53.502;10.252;2022-08-19T10:49:17;100974.16;;;21.48;100.00
16120;BME280;12670;53.502;10.252;2022-08-19T10:52:20;100965.41;;;21.35;100.00
16120;BME280;12670;53.502;10.252;2022-08-19T10:55:39;100970.38;;;21.40;100.00
16120;BME280;12670;53.502;10.252;2022-08-19T10:59:01;100969.41;;;21.41;100.00
16120;BME280;12670;53.502;10.252;2022-08-19T11:02:07;100959.25;;;21.33;100.00
16120;BME280;12670;53.502;10.252;2022-08-19T11:05:11;100961.72;;;21.57;100.00
16120;BME280;12670;53.502;10.252;2022-08-19T11:08:14;100963.03;;;21.63;100.00
16120;BME280;12670;53.502;10.252;2022-08-19T11:11:24;100968.41;;;21.74;100.00
16120;BME280;12670;53.502;10.252;2022-08-19T11:14:28;100965.25;;;21.90;100.00
16120;BME280;12670;53.502;10.252;2022-08-19T11:17:34;100968.91;;;21.68;100.00
16120;BME280;12670;53.502;10.252;2022-08-19T11:20:37;100969.19;;;21.86;100.00
16120;BME280;12670;53.502;10.252;2022-08-19T11:23:40;100968.69;;;21.71;100.00
16120;BME280;12670;53.502;10.252;2022-08-19T11:26:44;100972.03;;;21.84;100.00
16120;BME280;12670;53.502;10.252;2022-08-19T11:29:48;100963.22;;;21.82;100.00
16120;BME280;12670;53.502;10.252;2022-08-19T11:32:51;100962.47;;;21.80;100.00
16120;BME280;12670;53.502;10.252;2022-08-19T11:35:53;100956.28;;;21.89;100.00
16120;BME280;12670;53.502;10.252;2022-08-19T11:38:56;100951.03;;;21.88;100.00
16120;BME280;12670;53.502;10.252;2022-08-19T11:41:59;100948.44;;;21.86;100.00
16120;BME280;12670;53.502;10.252;2022-08-19T11:45:05;100943.91;;;22.07;100.00
16120;BME280;12670;53.502;10.252;2022-08-19T11:48:07;100941.19;;;22.07;100.00
16120;BME280;12670;53.502;10.252;2022-08-19T11:51:12;100945.69;;;22.18;100.00
16120;BME280;12670;53.502;10.252;2022-08-19T11:54:15;100942.31;;;22.05;100.00
16120;BME280;12670;53.502;10.252;2022-08-19T11:57:18;100956.19;;;22.12;100.00
16120;BME280;12670;53.502;10.252;2022-08-19T12:00:22;100959.09;;;22.08;100.00
16120;BME280;12670;53.502;10.252;2022-08-19T12:03:25;100959.53;;;22.25;100.00
16120;BME280;12670;53.502;10.252;2022-08-19T12:06:31;100954.50;;;22.41;100.00
16120;BME280;12670;53.502;10.252;2022-08-19T12:09:35;100954.59;;;22.30;100.00
16120;BME280;12670;53.502;10.252;2022-08-19T12:12:43;100955.34;;;22.42;100.00
16120;BME280;12670;53.502;10.252;2022-08-19T12:16:00;100954.03;;;22.36;100.00
16120;BME280;12670;53.502;10.252;2022-08-19T12:19:09;100949.44;;;22.27;100.00
16120;BME280;12670;53.502;10.252;2022-08-19T12:22:12;100950.50;;;22.45;100.00
16120;BME280;12670;53.502;10.252;2022-08-19T12:25:14;100953.41;;;22.53;100.00
16120;BME280;12670;53.502;10.252;2022-08-19T12:28:19;100953.00;;;22.68;100.00
16120;BME280;12670;53.502;10.252;2022-08-19T12:31:24;100947.81;;;22.45;100.00
16120;BME280;12670;53.502;10.252;2022-08-19T12:34:27;100955.41;;;22.61;100.00
16120;BME280;12670;53.502;10.252;2022-08-19T12:37:32;100949.06;;;22.72;100.00
16120;BME280;12670;53.502;10.252;2022-08-19T12:40:34;100958.72;;;22.74;100.00
16120;BME280;12670;53.502;10.252;2022-08-19T12:43:37;100950.97;;;22.50;100.00
16120;BME280;12670;53.502;10.252;2022-08-19T12:46:42;100952.31;;;22.66;100.00
16120;BME280;12670;53.502;10.252;2022-08-19T12:49:44;100945.22;;;22.74;100.00
16120;BME280;12670;53.502;10.252;2022-08-19T12:52:55;100949.50;;;22.77;100.00
16120;BME280;12670;53.502;10.252;2022-08-19T12:55:59;100946.25;;;22.83;100.00
16120;BME280;12670;53.502;10.252;2022-08-19T12:59:02;100946.31;;;23.02;100.00
16120;BME280;12670;53.502;10.252;2022-08-19T13:02:07;100948.47;;;23.08;100.00
16120;BME280;12670;53.502;10.252;2022-08-19T13:05:12;100937.09;;;23.53;99.06
16120;BME280;12670;53.502;10.252;2022-08-19T13:08:15;100939.66;;;23.84;96.68
16120;BME280;12670;53.502;10.252;2022-08-19T13:11:20;100934.94;;;24.52;95.32
16120;BME280;12670;53.502;10.252;2022-08-19T13:14:25;100939.66;;;24.78;90.47
16120;BME280;12670;53.502;10.252;2022-08-19T13:17:29;100931.09;;;24.72;90.11
16120;BME280;12670;53.502;10.252;2022-08-19T13:20:32;100930.91;;;24.84;91.48
16120;BME280;12670;53.502;10.252;2022-08-19T13:23:37;100919.13;;;24.75;92.37
16120;BME280;12670;53.502;10.252;2022-08-19T13:26:39;100929.84;;;24.67;91.21
16120;BME280;12670;53.502;10.252;2022-08-19T13:29:42;100922.50;;;24.50;89.87
16120;BME280;12670;53.502;10.252;2022-08-19T13:33:03;100923.28;;;24.42;91.14
16120;BME280;12670;53.502;10.252;2022-08-19T13:36:16;100912.50;;;24.78;90.18
16120;BME280;12670;53.502;10.252;2022-08-19T13:39:19;100922.47;;;24.87;88.42
16120;BME280;12670;53.502;10.252;2022-08-19T13:42:24;100911.63;;;24.87;89.84
16120;BME280;12670;53.502;10.252;2022-08-19T13:45:28;100913.31;;;24.88;90.83
16120;BME280;12670;53.502;10.252;2022-08-19T13:48:33;100913.78;;;24.83;89.46
16120;BME280;12670;53.502;10.252;2022-08-19T13:51:37;100911.06;;;24.83;87.86
16120;BME280;12670;53.502;10.252;2022-08-19T13:54:42;100927.41;;;24.91;87.62
16120;BME280;12670;53.502;10.252;2022-08-19T13:57:45;100920.44;;;24.89;88.81
16120;BME280;12670;53.502;10.252;2022-08-19T14:00:48;100913.97;;;24.99;89.03
16120;BME280;12670;53.502;10.252;2022-08-19T14:03:52;100909.59;;;24.89;86.74
16120;BME280;12670;53.502;10.252;2022-08-19T14:06:55;100906.63;;;25.45;85.18
16120;BME280;12670;53.502;10.252;2022-08-19T14:09:57;100917.47;;;25.63;81.70
16120;BME280;12670;53.502;10.252;2022-08-19T14:13:02;100909.81;;;25.41;83.05
16120;BME280;12670;53.502;10.252;2022-08-19T14:16:09;100904.06;;;25.26;84.47
16120;BME280;12670;53.502;10.252;2022-08-19T14:19:13;100903.44;;;25.14;84.56
16120;BME280;12670;53.502;10.252;2022-08-19T14:22:16;100903.16;;;25.17;84.34
16120;BME280;12670;53.502;10.252;2022-08-19T14:25:25;100904.22;;;25.24;85.09
16120;BME280;12670;53.502;10.252;2022-08-19T14:28:28;100906.53;;;25.19;83.52
16120;BME280;12670;53.502;10.252;2022-08-19T14:31:31;100904.63;;;25.30;82.62
16120;BME280;12670;53.502;10.252;2022-08-19T14:34:35;100903.75;;;25.11;82.44
16120;BME280;12670;53.502;10.252;2022-08-19T14:37:39;100910.06;;;25.02;82.34
16120;BME280;12670;53.502;10.252;2022-08-19T14:40:46;100906.88;;;24.89;84.13
16120;BME280;12670;53.502;10.252;2022-08-19T14:43:51;100906.81;;;24.81;85.51
16120;BME280;12670;53.502;10.252;2022-08-19T14:46:54;100905.06;;;24.80;86.22
16120;BME280;12670;53.502;10.252;2022-08-19T14:49:59;100906.47;;;24.56;85.19
16120;BME280;12670;53.502;10.252;2022-08-19T14:53:07;100897.50;;;24.56;86.49
16120;BME280;12670;53.502;10.252;2022-08-19T14:56:15;100915.53;;;24.47;87.66
16120;BME280;12670;53.502;10.252;2022-08-19T14:59:18;100923.25;;;24.52;87.73
16120;BME280;12670;53.502;10.252;2022-08-19T15:02:20;100922.69;;;24.38;88.52
16120;BME280;12670;53.502;10.252;2022-08-19T15:05:37;100920.56;;;24.42;89.15
16120;BME280;12670;53.502;10.252;2022-08-19T15:08:41;100920.56;;;24.42;87.67
16120;BME280;12670;53.502;10.252;2022-08-19T15:11:44;100922.16;;;24.35;88.58
16120;BME280;12670;53.502;10.252;2022-08-19T15:14:47;100933.00;;;24.35;88.04
16120;BME280;12670;53.502;10.252;2022-08-19T15:17:56;100920.72;;;24.31;87.44
16120;BME280;12670;53.502;10.252;2022-08-19T15:21:05;100927.28;;;24.28;89.06
16120;BME280;12670;53.502;10.252;2022-08-19T15:24:08;100932.47;;;24.22;89.41
16120;BME280;12670;53.502;10.252;2022-08-19T15:27:11;100926.81;;;24.33;89.71
16120;BME280;12670;53.502;10.252;2022-08-19T15:30:19;100934.88;;;24.34;87.22
16120;BME280;12670;53.502;10.252;2022-08-19T15:33:22;100935.56;;;24.27;86.47
16120;BME280;12670;53.502;10.252;2022-08-19T15:36:26;100935.56;;;24.27;88.35
16120;BME280;12670;53.502;10.252;2022-08-19T15:39:29;100936.16;;;24.20;87.64
16120;BME280;12670;53.502;10.252;2022-08-19T15:42:32;100932.72;;;24.28;87.64
16120;BME280;12670;53.502;10.252;2022-08-19T15:45:35;100938.69;;;24.32;88.12
16120;BME280;12670;53.502;10.252;2022-08-19T15:48:37;100933.84;;;24.26;87.12